Terminal Aerodrome Forecast
Issued by NWS

Home | Current Version | Previous Version | Graphics & Text | Print | Product List | Glossary On
Versions: 1 2 3 4 5 6 7 8 9 10 11 12 13 14 15 16 17 18 19 20 21
000
FTUS43 KGRB 270500
TAFCWA
TAF
KCWA 270520Z 2706/2806 09003KT 6SM BR SCT009 OVC035
      TEMPO 2706/2708 5SM BR BKN009
     FM270800 VRB03KT 5SM BR SCT004 OVC008
      TEMPO 2708/2712 3SM BR OVC004
     FM271200 00000KT 3SM BR OVC003
     FM271700 VRB03KT 6SM BR BKN008 OVC012
     FM272200 VRB03KT P6SM BKN014 BKN030
      AMD LTD TO CLD VIS AND WIND TIL 271200=

USA.gov is the U.S. government's official web portal to all federal, state and local government web resources and services.